Terminal Aerodrome Forecast
Issued by NWS

Home | Current Version | Previous Version | Text Only | Print | Product List | Glossary Off
Versions: 1 2 3 4 5 6 7 8 9 10 11 12 13 14 15 16 17 18 19 20 21 22 23 24 25 26 27 28 29 30 31 32

882
FTUS43 KLOT 190911 AAA
TAFORD
TAF AMD
KORD 190911Z 1909/2012 02005KT 3SM BR VCSH BKN004 OVC007
     FM191200 36005KT 3SM BR VCSH BKN005 OVC008
     FM191400 28005KT P6SM SCT008 BKN015 OVC025
     FM191800 30005KT P6SM BKN025
     FM192200 08007KT P6SM BKN030
     FM200000 06005KT P6SM BKN035
     FM200700 02009KT 6SM BR VCSH OVC020=

USA.gov is the U.S. government's official web portal to all federal, state and local government web resources and services.